sensor_id;sensor_type;location;lat;lon;timestamp;P1;durP1;ratioP1;P2;durP2;ratioP2
35877;SDS011;21982;49.804;24.072;2023-03-14T00:00:12;6.55;;;2.17;;
35877;SDS011;21982;49.804;24.072;2023-03-14T00:02:40;4.40;;;2.38;;
35877;SDS011;21982;49.804;24.072;2023-03-14T00:05:06;5.70;;;2.30;;
35877;SDS011;21982;49.804;24.072;2023-03-14T00:07:34;6.32;;;2.28;;
35877;SDS011;21982;49.804;24.072;2023-03-14T00:10:05;4.18;;;2.05;;
35877;SDS011;21982;49.804;24.072;2023-03-14T00:12:34;4.85;;;1.75;;
35877;SDS011;21982;49.804;24.072;2023-03-14T00:15:09;5.53;;;1.83;;
35877;SDS011;21982;49.804;24.072;2023-03-14T00:17:35;4.35;;;2.50;;
35877;SDS011;21982;49.804;24.072;2023-03-14T00:20:01;6.75;;;2.20;;
35877;SDS011;21982;49.804;24.072;2023-03-14T00:22:33;3.78;;;1.75;;
35877;SDS011;21982;49.804;24.072;2023-03-14T00:25:00;5.97;;;1.92;;
35877;SDS011;21982;49.804;24.072;2023-03-14T00:27:26;3.90;;;1.70;;
35877;SDS011;21982;49.804;24.072;2023-03-14T00:29:51;3.53;;;1.83;;
35877;SDS011;21982;49.804;24.072;2023-03-14T00:32:16;5.28;;;1.80;;
35877;SDS011;21982;49.804;24.072;2023-03-14T00:34:42;3.78;;;1.90;;
35877;SDS011;21982;49.804;24.072;2023-03-14T00:37:07;4.25;;;1.70;;
35877;SDS011;21982;49.804;24.072;2023-03-14T00:39:33;3.47;;;1.70;;
35877;SDS011;21982;49.804;24.072;2023-03-14T00:41:58;5.22;;;1.50;;
35877;SDS011;21982;49.804;24.072;2023-03-14T00:44:24;5.50;;;2.17;;
35877;SDS011;21982;49.804;24.072;2023-03-14T00:46:49;4.63;;;1.95;;
35877;SDS011;21982;49.804;24.072;2023-03-14T00:49:15;6.13;;;2.30;;
35877;SDS011;21982;49.804;24.072;2023-03-14T00:51:40;5.43;;;1.92;;
35877;SDS011;21982;49.804;24.072;2023-03-14T00:56:33;4.18;;;1.88;;
35877;SDS011;21982;49.804;24.072;2023-03-14T00:59:01;3.80;;;1.90;;
35877;SDS011;21982;49.804;24.072;2023-03-14T01:01:36;6.55;;;1.55;;
35877;SDS011;21982;49.804;24.072;2023-03-14T01:04:02;5.35;;;2.03;;
35877;SDS011;21982;49.804;24.072;2023-03-14T01:06:29;5.82;;;1.92;;
35877;SDS011;21982;49.804;24.072;2023-03-14T01:08:55;5.43;;;2.22;;
35877;SDS011;21982;49.804;24.072;2023-03-14T01:11:25;4.22;;;1.80;;
35877;SDS011;21982;49.804;24.072;2023-03-14T01:13:52;5.57;;;1.67;;
35877;SDS011;21982;49.804;24.072;2023-03-14T01:16:18;4.18;;;1.42;;
35877;SDS011;21982;49.804;24.072;2023-03-14T01:18:46;4.70;;;1.77;;
35877;SDS011;21982;49.804;24.072;2023-03-14T01:23:43;3.90;;;1.30;;
35877;SDS011;21982;49.804;24.072;2023-03-14T01:26:12;3.85;;;1.58;;
35877;SDS011;21982;49.804;24.072;2023-03-14T01:28:39;3.25;;;1.45;;
35877;SDS011;21982;49.804;24.072;2023-03-14T01:31:05;4.90;;;1.60;;
35877;SDS011;21982;49.804;24.072;2023-03-14T01:33:32;6.25;;;1.90;;
35877;SDS011;21982;49.804;24.072;2023-03-14T01:35:57;4.78;;;1.52;;
35877;SDS011;21982;49.804;24.072;2023-03-14T01:38:23;2.42;;;1.20;;
35877;SDS011;21982;49.804;24.072;2023-03-14T01:40:50;3.08;;;1.50;;
35877;SDS011;21982;49.804;24.072;2023-03-14T01:43:16;4.53;;;1.85;;
35877;SDS011;21982;49.804;24.072;2023-03-14T01:48:42;5.47;;;1.70;;
35877;SDS011;21982;49.804;24.072;2023-03-14T01:51:14;3.38;;;1.65;;
35877;SDS011;21982;49.804;24.072;2023-03-14T01:53:44;2.90;;;1.38;;
35877;SDS011;21982;49.804;24.072;2023-03-14T01:56:11;3.35;;;2.22;;
35877;SDS011;21982;49.804;24.072;2023-03-14T01:58:40;5.55;;;1.50;;
35877;SDS011;21982;49.804;24.072;2023-03-14T02:01:11;5.53;;;1.30;;
35877;SDS011;21982;49.804;24.072;2023-03-14T02:03:44;4.90;;;1.77;;
35877;SDS011;21982;49.804;24.072;2023-03-14T02:06:21;3.08;;;1.60;;
35877;SDS011;21982;49.804;24.072;2023-03-14T02:08:51;3.90;;;1.52;;
35877;SDS011;21982;49.804;24.072;2023-03-14T02:11:17;5.13;;;1.48;;
35877;SDS011;21982;49.804;24.072;2023-03-14T02:13:43;2.33;;;1.70;;
35877;SDS011;21982;49.804;24.072;2023-03-14T02:16:09;3.53;;;1.25;;
35877;SDS011;21982;49.804;24.072;2023-03-14T02:18:35;2.75;;;1.48;;
35877;SDS011;21982;49.804;24.072;2023-03-14T02:21:12;2.33;;;1.17;;
35877;SDS011;21982;49.804;24.072;2023-03-14T02:26:34;5.38;;;1.30;;
35877;SDS011;21982;49.804;24.072;2023-03-14T02:29:22;3.25;;;1.15;;
35877;SDS011;21982;49.804;24.072;2023-03-14T02:31:47;3.17;;;1.70;;
35877;SDS011;21982;49.804;24.072;2023-03-14T02:34:12;2.40;;;1.45;;
35877;SDS011;21982;49.804;24.072;2023-03-14T02:36:38;5.93;;;1.67;;
35877;SDS011;21982;49.804;24.072;2023-03-14T02:39:08;6.43;;;2.00;;
35877;SDS011;21982;49.804;24.072;2023-03-14T02:41:46;5.55;;;1.60;;
35877;SDS011;21982;49.804;24.072;2023-03-14T02:44:14;4.05;;;1.42;;
35877;SDS011;21982;49.804;24.072;2023-03-14T02:46:39;5.32;;;2.00;;
35877;SDS011;21982;49.804;24.072;2023-03-14T02:49:06;4.40;;;1.38;;
35877;SDS011;21982;49.804;24.072;2023-03-14T02:51:35;6.10;;;1.60;;
35877;SDS011;21982;49.804;24.072;2023-03-14T02:54:02;8.05;;;2.15;;
35877;SDS011;21982;49.804;24.072;2023-03-14T02:56:27;4.38;;;1.70;;
35877;SDS011;21982;49.804;24.072;2023-03-14T02:58:52;4.13;;;2.00;;
35877;SDS011;21982;49.804;24.072;2023-03-14T03:01:18;5.57;;;1.70;;
35877;SDS011;21982;49.804;24.072;2023-03-14T03:03:43;4.55;;;1.60;;
35877;SDS011;21982;49.804;24.072;2023-03-14T03:06:09;5.15;;;1.85;;
35877;SDS011;21982;49.804;24.072;2023-03-14T03:08:34;7.43;;;1.85;;
35877;SDS011;21982;49.804;24.072;2023-03-14T03:11:00;4.63;;;1.70;;
35877;SDS011;21982;49.804;24.072;2023-03-14T03:13:25;4.28;;;1.70;;
35877;SDS011;21982;49.804;24.072;2023-03-14T03:15:51;3.45;;;1.23;;
35877;SDS011;21982;49.804;24.072;2023-03-14T03:18:17;3.95;;;1.20;;
35877;SDS011;21982;49.804;24.072;2023-03-14T03:20:42;2.97;;;1.10;;
35877;SDS011;21982;49.804;24.072;2023-03-14T03:23:08;5.25;;;1.67;;
35877;SDS011;21982;49.804;24.072;2023-03-14T03:25:33;3.38;;;1.10;;
35877;SDS011;21982;49.804;24.072;2023-03-14T03:27:59;2.75;;;1.17;;
35877;SDS011;21982;49.804;24.072;2023-03-14T03:30:25;2.92;;;1.38;;
35877;SDS011;21982;49.804;24.072;2023-03-14T03:32:51;2.47;;;1.15;;
35877;SDS011;21982;49.804;24.072;2023-03-14T03:35:16;2.33;;;1.15;;
35877;SDS011;21982;49.804;24.072;2023-03-14T03:37:42;2.65;;;1.33;;
35877;SDS011;21982;49.804;24.072;2023-03-14T03:40:08;4.10;;;2.00;;
35877;SDS011;21982;49.804;24.072;2023-03-14T03:42:34;3.40;;;1.55;;
35877;SDS011;21982;49.804;24.072;2023-03-14T03:45:00;4.03;;;1.45;;
35877;SDS011;21982;49.804;24.072;2023-03-14T03:47:26;3.08;;;1.33;;
35877;SDS011;21982;49.804;24.072;2023-03-14T03:49:51;3.55;;;1.63;;
35877;SDS011;21982;49.804;24.072;2023-03-14T03:52:17;2.78;;;1.33;;
35877;SDS011;21982;49.804;24.072;2023-03-14T03:54:42;2.72;;;1.25;;
35877;SDS011;21982;49.804;24.072;2023-03-14T03:57:08;4.47;;;1.60;;
35877;SDS011;21982;49.804;24.072;2023-03-14T03:59:33;3.05;;;1.50;;
35877;SDS011;21982;49.804;24.072;2023-03-14T04:01:58;3.22;;;1.77;;
35877;SDS011;21982;49.804;24.072;2023-03-14T04:04:24;4.50;;;1.65;;
35877;SDS011;21982;49.804;24.072;2023-03-14T04:06:49;4.10;;;1.45;;
35877;SDS011;21982;49.804;24.072;2023-03-14T04:09:15;2.63;;;1.20;;
35877;SDS011;21982;49.804;24.072;2023-03-14T04:11:40;2.95;;;1.35;;
35877;SDS011;21982;49.804;24.072;2023-03-14T04:14:06;4.63;;;1.48;;
35877;SDS011;21982;49.804;24.072;2023-03-14T04:16:32;4.32;;;1.38;;
35877;SDS011;21982;49.804;24.072;2023-03-14T04:18:58;3.42;;;1.30;;
35877;SDS011;21982;49.804;24.072;2023-03-14T04:21:24;6.05;;;2.58;;
35877;SDS011;21982;49.804;24.072;2023-03-14T04:23:50;11.00;;;4.18;;
35877;SDS011;21982;49.804;24.072;2023-03-14T04:26:15;9.77;;;3.72;;
35877;SDS011;21982;49.804;24.072;2023-03-14T04:28:41;13.35;;;4.65;;
35877;SDS011;21982;49.804;24.072;2023-03-14T04:31:11;12.23;;;5.47;;
35877;SDS011;21982;49.804;24.072;2023-03-14T04:33:37;10.38;;;3.67;;
35877;SDS011;21982;49.804;24.072;2023-03-14T04:36:03;10.85;;;3.67;;
35877;SDS011;21982;49.804;24.072;2023-03-14T04:38:31;7.75;;;2.50;;
35877;SDS011;21982;49.804;24.072;2023-03-14T04:40:57;8.93;;;3.42;;
35877;SDS011;21982;49.804;24.072;2023-03-14T04:43:24;10.07;;;2.78;;
35877;SDS011;21982;49.804;24.072;2023-03-14T04:45:50;8.55;;;4.03;;
35877;SDS011;21982;49.804;24.072;2023-03-14T04:48:16;8.50;;;2.42;;
35877;SDS011;21982;49.804;24.072;2023-03-14T04:50:42;4.95;;;2.15;;
35877;SDS011;21982;49.804;24.072;2023-03-14T04:53:07;4.45;;;2.03;;
35877;SDS011;21982;49.804;24.072;2023-03-14T04:55:32;6.38;;;1.42;;
35877;SDS011;21982;49.804;24.072;2023-03-14T04:57:58;2.83;;;1.38;;
35877;SDS011;21982;49.804;24.072;2023-03-14T05:00:24;4.25;;;1.90;;
35877;SDS011;21982;49.804;24.072;2023-03-14T05:02:49;2.53;;;1.40;;
35877;SDS011;21982;49.804;24.072;2023-03-14T05:05:15;3.65;;;1.73;;
35877;SDS011;21982;49.804;24.072;2023-03-14T05:07:40;4.07;;;1.30;;
35877;SDS011;21982;49.804;24.072;2023-03-14T05:10:05;8.05;;;1.65;;
35877;SDS011;21982;49.804;24.072;2023-03-14T05:12:31;3.45;;;1.40;;
35877;SDS011;21982;49.804;24.072;2023-03-14T05:14:57;4.03;;;1.27;;
35877;SDS011;21982;49.804;24.072;2023-03-14T05:17:22;4.47;;;1.55;;
35877;SDS011;21982;49.804;24.072;2023-03-14T05:19:48;4.43;;;1.23;;
35877;SDS011;21982;49.804;24.072;2023-03-14T05:22:13;3.00;;;1.35;;
35877;SDS011;21982;49.804;24.072;2023-03-14T05:24:38;2.88;;;1.00;;
35877;SDS011;21982;49.804;24.072;2023-03-14T05:27:04;2.15;;;1.08;;
35877;SDS011;21982;49.804;24.072;2023-03-14T05:29:30;3.60;;;1.23;;
35877;SDS011;21982;49.804;24.072;2023-03-14T05:31:55;5.35;;;2.00;;
35877;SDS011;21982;49.804;24.072;2023-03-14T05:34:20;6.15;;;2.22;;
35877;SDS011;21982;49.804;24.072;2023-03-14T05:36:46;6.68;;;2.20;;
35877;SDS011;21982;49.804;24.072;2023-03-14T05:39:13;3.35;;;1.85;;
35877;SDS011;21982;49.804;24.072;2023-03-14T05:41:39;5.47;;;1.67;;
35877;SDS011;21982;49.804;24.072;2023-03-14T05:44:04;3.15;;;1.38;;
35877;SDS011;21982;49.804;24.072;2023-03-14T05:46:30;1.75;;;1.08;;
35877;SDS011;21982;49.804;24.072;2023-03-14T05:48:56;6.70;;;1.80;;
35877;SDS011;21982;49.804;24.072;2023-03-14T05:51:22;5.75;;;1.38;;
35877;SDS011;21982;49.804;24.072;2023-03-14T05:53:48;2.58;;;1.20;;
35877;SDS011;21982;49.804;24.072;2023-03-14T05:56:13;3.08;;;1.15;;
35877;SDS011;21982;49.804;24.072;2023-03-14T05:58:39;2.60;;;1.15;;
35877;SDS011;21982;49.804;24.072;2023-03-14T06:01:05;9.02;;;1.50;;
35877;SDS011;21982;49.804;24.072;2023-03-14T06:03:32;7.22;;;2.60;;
35877;SDS011;21982;49.804;24.072;2023-03-14T06:05:58;6.65;;;2.38;;
35877;SDS011;21982;49.804;24.072;2023-03-14T06:08:23;5.85;;;1.98;;
35877;SDS011;21982;49.804;24.072;2023-03-14T06:10:49;6.00;;;2.38;;
35877;SDS011;21982;49.804;24.072;2023-03-14T06:13:15;7.85;;;3.35;;
35877;SDS011;21982;49.804;24.072;2023-03-14T06:15:41;8.93;;;2.45;;
35877;SDS011;21982;49.804;24.072;2023-03-14T06:18:07;6.90;;;2.67;;
35877;SDS011;21982;49.804;24.072;2023-03-14T06:20:32;11.30;;;2.95;;
35877;SDS011;21982;49.804;24.072;2023-03-14T06:23:04;7.82;;;2.63;;
35877;SDS011;21982;49.804;24.072;2023-03-14T06:25:32;8.10;;;2.80;;
35877;SDS011;21982;49.804;24.072;2023-03-14T06:27:58;6.40;;;2.78;;
35877;SDS011;21982;49.804;24.072;2023-03-14T06:30:23;10.23;;;2.83;;
35877;SDS011;21982;49.804;24.072;2023-03-14T06:32:48;4.32;;;1.92;;
35877;SDS011;21982;49.804;24.072;2023-03-14T06:35:14;10.13;;;2.88;;
35877;SDS011;21982;49.804;24.072;2023-03-14T06:37:39;6.90;;;2.25;;
35877;SDS011;21982;49.804;24.072;2023-03-14T06:40:05;7.13;;;1.77;;
35877;SDS011;21982;49.804;24.072;2023-03-14T06:42:32;8.63;;;2.90;;
35877;SDS011;21982;49.804;24.072;2023-03-14T06:44:59;7.05;;;3.30;;
35877;SDS011;21982;49.804;24.072;2023-03-14T06:47:26;5.18;;;2.10;;
35877;SDS011;21982;49.804;24.072;2023-03-14T06:49:52;9.05;;;1.83;;
35877;SDS011;21982;49.804;24.072;2023-03-14T06:52:17;7.13;;;1.15;;
35877;SDS011;21982;49.804;24.072;2023-03-14T06:54:43;4.85;;;1.17;;
35877;SDS011;21982;49.804;24.072;2023-03-14T06:57:09;5.97;;;1.40;;
35877;SDS011;21982;49.804;24.072;2023-03-14T06:59:34;3.42;;;1.13;;
35877;SDS011;21982;49.804;24.072;2023-03-14T07:02:02;2.00;;;1.00;;
35877;SDS011;21982;49.804;24.072;2023-03-14T07:04:28;3.83;;;0.90;;
35877;SDS011;21982;49.804;24.072;2023-03-14T07:06:53;3.95;;;1.17;;
35877;SDS011;21982;49.804;24.072;2023-03-14T07:09:19;7.95;;;1.48;;
35877;SDS011;21982;49.804;24.072;2023-03-14T07:11:45;1.88;;;1.10;;
35877;SDS011;21982;49.804;24.072;2023-03-14T07:14:10;3.95;;;1.13;;
35877;SDS011;21982;49.804;24.072;2023-03-14T07:16:38;3.40;;;1.23;;
35877;SDS011;21982;49.804;24.072;2023-03-14T07:19:03;2.30;;;1.00;;
35877;SDS011;21982;49.804;24.072;2023-03-14T07:21:30;2.92;;;0.90;;
35877;SDS011;21982;49.804;24.072;2023-03-14T07:23:56;2.45;;;1.15;;
35877;SDS011;21982;49.804;24.072;2023-03-14T07:26:22;3.38;;;0.90;;
35877;SDS011;21982;49.804;24.072;2023-03-14T07:28:48;3.55;;;0.85;;
35877;SDS011;21982;49.804;24.072;2023-03-14T07:31:14;3.85;;;1.05;;
35877;SDS011;21982;49.804;24.072;2023-03-14T07:33:39;6.07;;;1.50;;
35877;SDS011;21982;49.804;24.072;2023-03-14T07:36:05;4.30;;;1.50;;
35877;SDS011;21982;49.804;24.072;2023-03-14T07:38:31;5.88;;;1.10;;
35877;SDS011;21982;49.804;24.072;2023-03-14T07:41:00;2.80;;;1.48;;
35877;SDS011;21982;49.804;24.072;2023-03-14T07:43:30;4.68;;;1.35;;
35877;SDS011;21982;49.804;24.072;2023-03-14T07:45:55;4.43;;;1.70;;
35877;SDS011;21982;49.804;24.072;2023-03-14T07:48:21;4.25;;;1.48;;
35877;SDS011;21982;49.804;24.072;2023-03-14T07:50:49;5.97;;;2.35;;
35877;SDS011;21982;49.804;24.072;2023-03-14T07:53:15;7.93;;;1.85;;
35877;SDS011;21982;49.804;24.072;2023-03-14T07:55:41;6.57;;;2.05;;
35877;SDS011;21982;49.804;24.072;2023-03-14T07:58:06;3.75;;;1.55;;
35877;SDS011;21982;49.804;24.072;2023-03-14T08:00:31;4.35;;;1.33;;
35877;SDS011;21982;49.804;24.072;2023-03-14T08:02:57;4.07;;;1.70;;
35877;SDS011;21982;49.804;24.072;2023-03-14T08:05:23;5.88;;;1.65;;
35877;SDS011;21982;49.804;24.072;2023-03-14T08:07:48;3.10;;;1.20;;
35877;SDS011;21982;49.804;24.072;2023-03-14T08:10:13;3.55;;;1.60;;
35877;SDS011;21982;49.804;24.072;2023-03-14T08:12:45;4.30;;;1.55;;
35877;SDS011;21982;49.804;24.072;2023-03-14T08:15:11;4.57;;;1.83;;
35877;SDS011;21982;49.804;24.072;2023-03-14T08:17:37;5.30;;;1.38;;
35877;SDS011;21982;49.804;24.072;2023-03-14T08:20:03;9.40;;;2.33;;
35877;SDS011;21982;49.804;24.072;2023-03-14T08:22:32;7.13;;;2.40;;
35877;SDS011;21982;49.804;24.072;2023-03-14T08:24:58;4.68;;;1.60;;
35877;SDS011;21982;49.804;24.072;2023-03-14T08:27:23;4.60;;;1.63;;
35877;SDS011;21982;49.804;24.072;2023-03-14T08:29:48;4.07;;;1.33;;
35877;SDS011;21982;49.804;24.072;2023-03-14T08:32:17;4.45;;;1.30;;
35877;SDS011;21982;49.804;24.072;2023-03-14T08:34:43;5.50;;;1.60;;
35877;SDS011;21982;49.804;24.072;2023-03-14T08:37:09;7.78;;;1.55;;
35877;SDS011;21982;49.804;24.072;2023-03-14T08:39:35;6.45;;;1.85;;
35877;SDS011;21982;49.804;24.072;2023-03-14T08:42:01;4.05;;;1.55;;
35877;SDS011;21982;49.804;24.072;2023-03-14T08:44:27;7.22;;;1.42;;
35877;SDS011;21982;49.804;24.072;2023-03-14T08:46:55;9.88;;;2.03;;
35877;SDS011;21982;49.804;24.072;2023-03-14T08:49:22;6.57;;;1.58;;
35877;SDS011;21982;49.804;24.072;2023-03-14T08:51:47;3.28;;;1.45;;
35877;SDS011;21982;49.804;24.072;2023-03-14T08:54:13;4.90;;;1.63;;
35877;SDS011;21982;49.804;24.072;2023-03-14T08:56:38;4.10;;;1.15;;
35877;SDS011;21982;49.804;24.072;2023-03-14T08:59:09;5.38;;;1.42;;
35877;SDS011;21982;49.804;24.072;2023-03-14T09:01:36;4.93;;;1.48;;
35877;SDS011;21982;49.804;24.072;2023-03-14T09:04:05;4.15;;;1.55;;
35877;SDS011;21982;49.804;24.072;2023-03-14T09:06:31;3.78;;;1.55;;
35877;SDS011;21982;49.804;24.072;2023-03-14T09:08:57;7.63;;;2.17;;
35877;SDS011;21982;49.804;24.072;2023-03-14T09:11:22;2.15;;;1.00;;
35877;SDS011;21982;49.804;24.072;2023-03-14T09:13:48;3.78;;;1.30;;
35877;SDS011;21982;49.804;24.072;2023-03-14T09:16:13;5.63;;;1.52;;
35877;SDS011;21982;49.804;24.072;2023-03-14T09:18:39;3.53;;;1.58;;
35877;SDS011;21982;49.804;24.072;2023-03-14T09:21:04;3.60;;;1.40;;
35877;SDS011;21982;49.804;24.072;2023-03-14T09:23:30;2.28;;;1.10;;
35877;SDS011;21982;49.804;24.072;2023-03-14T09:25:56;3.17;;;1.27;;
35877;SDS011;21982;49.804;24.072;2023-03-14T09:28:24;4.20;;;1.92;;
35877;SDS011;21982;49.804;24.072;2023-03-14T09:30:49;5.85;;;1.42;;
35877;SDS011;21982;49.804;24.072;2023-03-14T09:33:15;7.70;;;1.52;;
35877;SDS011;21982;49.804;24.072;2023-03-14T09:35:41;6.28;;;1.50;;
35877;SDS011;21982;49.804;24.072;2023-03-14T09:38:06;4.15;;;1.00;;
35877;SDS011;21982;49.804;24.072;2023-03-14T09:40:35;8.82;;;1.83;;
35877;SDS011;21982;49.804;24.072;2023-03-14T09:43:01;2.83;;;1.00;;
35877;SDS011;21982;49.804;24.072;2023-03-14T09:45:37;2.88;;;1.05;;
35877;SDS011;21982;49.804;24.072;2023-03-14T09:48:05;6.25;;;1.27;;
35877;SDS011;21982;49.804;24.072;2023-03-14T09:50:39;5.68;;;1.00;;
35877;SDS011;21982;49.804;24.072;2023-03-14T09:53:09;3.45;;;1.85;;
35877;SDS011;21982;49.804;24.072;2023-03-14T09:55:39;4.95;;;2.35;;
35877;SDS011;21982;49.804;24.072;2023-03-14T09:58:11;6.07;;;1.42;;
35877;SDS011;21982;49.804;24.072;2023-03-14T10:00:39;3.28;;;1.27;;
35877;SDS011;21982;49.804;24.072;2023-03-14T10:06:27;4.15;;;1.38;;
35877;SDS011;21982;49.804;24.072;2023-03-14T10:08:54;2.60;;;1.30;;
35877;SDS011;21982;49.804;24.072;2023-03-14T10:11:21;6.28;;;1.63;;
35877;SDS011;21982;49.804;24.072;2023-03-14T10:14:02;2.65;;;1.08;;
35877;SDS011;21982;49.804;24.072;2023-03-14T10:16:40;4.57;;;1.42;;
35877;SDS011;21982;49.804;24.072;2023-03-14T10:19:13;3.75;;;1.60;;
35877;SDS011;21982;49.804;24.072;2023-03-14T10:21:40;4.90;;;1.10;;
35877;SDS011;21982;49.804;24.072;2023-03-14T10:24:30;4.95;;;1.33;;
35877;SDS011;21982;49.804;24.072;2023-03-14T10:27:04;4.32;;;1.10;;
35877;SDS011;21982;49.804;24.072;2023-03-14T10:29:32;4.50;;;1.67;;
35877;SDS011;21982;49.804;24.072;2023-03-14T10:34:28;4.25;;;1.58;;
35877;SDS011;21982;49.804;24.072;2023-03-14T10:37:03;8.80;;;2.65;;
35877;SDS011;21982;49.804;24.072;2023-03-14T10:42:31;3.55;;;1.67;;
35877;SDS011;21982;49.804;24.072;2023-03-14T10:45:04;3.60;;;1.70;;
35877;SDS011;21982;49.804;24.072;2023-03-14T10:47:50;6.35;;;1.70;;
35877;SDS011;21982;49.804;24.072;2023-03-14T10:50:23;6.15;;;1.50;;
35877;SDS011;21982;49.804;24.072;2023-03-14T10:53:00;7.00;;;1.33;;
35877;SDS011;21982;49.804;24.072;2023-03-14T10:55:44;3.08;;;1.13;;
35877;SDS011;21982;49.804;24.072;2023-03-14T10:58:20;3.40;;;1.05;;
35877;SDS011;21982;49.804;24.072;2023-03-14T11:00:48;2.28;;;1.10;;
35877;SDS011;21982;49.804;24.072;2023-03-14T11:03:35;4.10;;;1.40;;
35877;SDS011;21982;49.804;24.072;2023-03-14T11:06:06;4.30;;;1.50;;
35877;SDS011;21982;49.804;24.072;2023-03-14T11:11:22;4.40;;;1.27;;
35877;SDS011;21982;49.804;24.072;2023-03-14T11:14:01;3.40;;;1.40;;
35877;SDS011;21982;49.804;24.072;2023-03-14T11:19:16;3.00;;;1.40;;
35877;SDS011;21982;49.804;24.072;2023-03-14T11:33:16;5.38;;;1.92;;
35877;SDS011;21982;49.804;24.072;2023-03-14T11:36:14;7.95;;;1.20;;
35877;SDS011;21982;49.804;24.072;2023-03-14T11:39:13;3.78;;;1.50;;
35877;SDS011;21982;49.804;24.072;2023-03-14T11:41:41;4.18;;;1.25;;
35877;SDS011;21982;49.804;24.072;2023-03-14T11:44:17;7.90;;;2.05;;
35877;SDS011;21982;49.804;24.072;2023-03-14T11:49:34;5.35;;;1.95;;
35877;SDS011;21982;49.804;24.072;2023-03-14T11:55:05;6.45;;;1.90;;
35877;SDS011;21982;49.804;24.072;2023-03-14T11:57:36;6.93;;;2.22;;
35877;SDS011;21982;49.804;24.072;2023-03-14T12:00:12;5.28;;;1.27;;
35877;SDS011;21982;49.804;24.072;2023-03-14T12:05:45;3.72;;;1.10;;
35877;SDS011;21982;49.804;24.072;2023-03-14T12:08:22;3.00;;;1.10;;
35877;SDS011;21982;49.804;24.072;2023-03-14T12:13:57;5.30;;;1.23;;
35877;SDS011;21982;49.804;24.072;2023-03-14T12:18:48;5.55;;;1.25;;
35877;SDS011;21982;49.804;24.072;2023-03-14T12:21:14;3.83;;;1.25;;
35877;SDS011;21982;49.804;24.072;2023-03-14T12:36:48;5.53;;;1.23;;
35877;SDS011;21982;49.804;24.072;2023-03-14T12:45:13;4.60;;;1.65;;
35877;SDS011;21982;49.804;24.072;2023-03-14T12:47:49;4.22;;;1.55;;
35877;SDS011;21982;49.804;24.072;2023-03-14T12:50:18;6.35;;;2.22;;
35877;SDS011;21982;49.804;24.072;2023-03-14T12:56:07;4.13;;;1.85;;
35877;SDS011;21982;49.804;24.072;2023-03-14T12:58:39;5.30;;;1.58;;
35877;SDS011;21982;49.804;24.072;2023-03-14T13:01:16;6.75;;;2.42;;
35877;SDS011;21982;49.804;24.072;2023-03-14T13:03:47;6.25;;;1.77;;
35877;SDS011;21982;49.804;24.072;2023-03-14T13:11:56;6.05;;;2.17;;
35877;SDS011;21982;49.804;24.072;2023-03-14T13:14:30;6.07;;;2.13;;
35877;SDS011;21982;49.804;24.072;2023-03-14T13:16:59;7.85;;;2.30;;
35877;SDS011;21982;49.804;24.072;2023-03-14T13:19:27;4.90;;;2.00;;
35877;SDS011;21982;49.804;24.072;2023-03-14T13:22:06;6.00;;;1.65;;
35877;SDS011;21982;49.804;24.072;2023-03-14T13:24:44;6.10;;;1.65;;
35877;SDS011;21982;49.804;24.072;2023-03-14T13:27:16;5.50;;;1.80;;
35877;SDS011;21982;49.804;24.072;2023-03-14T13:29:45;5.07;;;1.48;;
35877;SDS011;21982;49.804;24.072;2023-03-14T13:32:19;3.92;;;1.52;;
35877;SDS011;21982;49.804;24.072;2023-03-14T13:34:46;5.72;;;1.77;;
35877;SDS011;21982;49.804;24.072;2023-03-14T13:37:16;7.93;;;1.95;;
35877;SDS011;21982;49.804;24.072;2023-03-14T13:39:48;6.63;;;3.00;;
35877;SDS011;21982;49.804;24.072;2023-03-14T13:42:15;3.80;;;2.17;;
35877;SDS011;21982;49.804;24.072;2023-03-14T13:44:42;3.38;;;1.45;;
35877;SDS011;21982;49.804;24.072;2023-03-14T13:47:12;7.65;;;1.83;;
35877;SDS011;21982;49.804;24.072;2023-03-14T13:49:41;7.50;;;2.50;;
35877;SDS011;21982;49.804;24.072;2023-03-14T13:55:06;5.97;;;2.22;;
35877;SDS011;21982;49.804;24.072;2023-03-14T13:57:48;6.00;;;2.70;;
35877;SDS011;21982;49.804;24.072;2023-03-14T14:00:28;7.43;;;3.08;;
35877;SDS011;21982;49.804;24.072;2023-03-14T14:02:55;8.13;;;2.40;;
35877;SDS011;21982;49.804;24.072;2023-03-14T14:05:23;6.68;;;3.00;;
35877;SDS011;21982;49.804;24.072;2023-03-14T14:07:52;6.68;;;2.63;;
35877;SDS011;21982;49.804;24.072;2023-03-14T14:10:18;7.88;;;3.13;;
35877;SDS011;21982;49.804;24.072;2023-03-14T14:15:25;10.57;;;4.13;;
35877;SDS011;21982;49.804;24.072;2023-03-14T14:17:54;6.15;;;2.65;;
35877;SDS011;21982;49.804;24.072;2023-03-14T14:20:27;6.68;;;2.83;;
35877;SDS011;21982;49.804;24.072;2023-03-14T14:23:03;3.42;;;1.65;;
35877;SDS011;21982;49.804;24.072;2023-03-14T14:25:31;4.13;;;1.73;;
35877;SDS011;21982;49.804;24.072;2023-03-14T14:27:57;5.53;;;2.42;;
35877;SDS011;21982;49.804;24.072;2023-03-14T14:30:30;6.13;;;2.00;;
35877;SDS011;21982;49.804;24.072;2023-03-14T14:33:12;4.53;;;2.20;;
35877;SDS011;21982;49.804;24.072;2023-03-14T14:35:50;7.55;;;2.65;;
35877;SDS011;21982;49.804;24.072;2023-03-14T14:38:23;8.50;;;2.40;;
35877;SDS011;21982;49.804;24.072;2023-03-14T14:40:50;3.80;;;2.03;;
35877;SDS011;21982;49.804;24.072;2023-03-14T14:43:20;5.53;;;2.90;;
35877;SDS011;21982;49.804;24.072;2023-03-14T14:45:51;9.35;;;2.33;;
35877;SDS011;21982;49.804;24.072;2023-03-14T14:48:20;8.13;;;2.90;;
35877;SDS011;21982;49.804;24.072;2023-03-14T14:56:04;6.72;;;2.05;;
35877;SDS011;21982;49.804;24.072;2023-03-14T14:58:41;3.72;;;2.03;;
35877;SDS011;21982;49.804;24.072;2023-03-14T15:01:14;4.30;;;1.90;;
35877;SDS011;21982;49.804;24.072;2023-03-14T15:03:45;8.98;;;2.22;;
35877;SDS011;21982;49.804;24.072;2023-03-14T15:06:14;4.35;;;1.77;;
35877;SDS011;21982;49.804;24.072;2023-03-14T15:08:46;7.50;;;2.22;;
35877;SDS011;21982;49.804;24.072;2023-03-14T15:11:17;6.15;;;2.17;;
35877;SDS011;21982;49.804;24.072;2023-03-14T15:13:45;4.38;;;2.33;;
35877;SDS011;21982;49.804;24.072;2023-03-14T15:16:15;6.28;;;2.53;;
35877;SDS011;21982;49.804;24.072;2023-03-14T15:18:43;5.05;;;2.45;;
35877;SDS011;21982;49.804;24.072;2023-03-14T15:21:11;5.70;;;1.95;;
35877;SDS011;21982;49.804;24.072;2023-03-14T15:23:36;5.15;;;1.88;;
35877;SDS011;21982;49.804;24.072;2023-03-14T15:26:05;4.10;;;2.00;;
35877;SDS011;21982;49.804;24.072;2023-03-14T15:28:36;4.77;;;1.93;;
35877;SDS011;21982;49.804;24.072;2023-03-14T15:31:03;7.13;;;2.28;;
35877;SDS011;21982;49.804;24.072;2023-03-14T15:33:35;5.20;;;1.63;;
35877;SDS011;21982;49.804;24.072;2023-03-14T15:36:01;4.53;;;1.83;;
35877;SDS011;21982;49.804;24.072;2023-03-14T15:38:26;7.50;;;2.50;;
35877;SDS011;21982;49.804;24.072;2023-03-14T15:40:52;7.45;;;3.38;;
35877;SDS011;21982;49.804;24.072;2023-03-14T15:43:18;6.30;;;3.38;;
35877;SDS011;21982;49.804;24.072;2023-03-14T15:45:44;7.35;;;3.30;;
35877;SDS011;21982;49.804;24.072;2023-03-14T15:48:15;10.23;;;4.15;;
35877;SDS011;21982;49.804;24.072;2023-03-14T15:50:47;6.70;;;2.88;;
35877;SDS011;21982;49.804;24.072;2023-03-14T15:53:12;7.57;;;2.95;;
35877;SDS011;21982;49.804;24.072;2023-03-14T15:55:40;5.38;;;2.95;;
35877;SDS011;21982;49.804;24.072;2023-03-14T15:58:09;6.40;;;2.85;;
35877;SDS011;21982;49.804;24.072;2023-03-14T16:00:43;8.15;;;3.08;;
35877;SDS011;21982;49.804;24.072;2023-03-14T16:03:09;9.35;;;2.50;;
35877;SDS011;21982;49.804;24.072;2023-03-14T16:05:35;6.28;;;2.67;;
35877;SDS011;21982;49.804;24.072;2023-03-14T16:08:01;8.18;;;2.88;;